Time;durP1;ratioP1;P1;durP2;ratioP2;P2;SDS_P1;SDS_P2;PMS_P1;PMS_P2;Temp;Humidity;BMP_temperature;BMP_pressure;BME280_temperature;BME280_humidity;BME280_pressure;Samples;Min_cycle;Max_cycle;Signal;HPM_P1;HPM_P2
2022/01/19 00:00:03;;;;;;;;;;;;;;;26.78;23.49;98937.16;172082;28;1253;-51
2022/01/19 00:00:08;;;;;;;;;;;;;;;26.79;23.56;98938.03;172331;28;834;-52
2022/01/19 00:00:14;;;;;;;;;;;;;;;26.78;23.34;98937.16;172376;28;1177;-51
2022/01/19 00:00:19;;;;;;;;;;;;;;;26.79;23.46;98940.66;172180;28;1201;-51
2022/01/19 00:00:24;;;;;;;;;;;;;;;26.78;23.36;98934.53;172517;28;1225;-51
2022/01/19 00:00:29;;;;;;;;;;;;;;;26.80;23.35;98937.06;172618;28;923;-51
2022/01/19 00:00:35;;;;;;;;;;;;;;;26.77;23.58;98938.09;172425;28;1165;-51
2022/01/19 00:00:40;;;;;;;;;;;;;;;26.81;23.35;98942.25;171841;28;1045;-51
2022/01/19 00:00:45;;;;;;;;;;;;;;;26.79;23.38;98940.66;171961;28;1217;-52
2022/01/19 00:00:50;;;;;;;;;;;;;;;26.79;23.60;98933.56;172446;28;801;-51
2022/01/19 00:00:55;;;;;;;;;;;;;;;26.79;23.34;98938.88;172307;28;1062;-50
2022/01/19 00:01:01;;;;;;;;;;;;;;;26.78;23.31;98934.53;170933;28;1279;-51
2022/01/19 00:01:06;;;;;;;;;;;;;;;26.80;23.36;98940.56;170740;28;941;-52
2022/01/19 00:01:11;;;;;;;;;;;;;;;26.79;23.30;98938.88;171125;28;949;-51
2022/01/19 00:01:16;;;;;;;;;;;;;;;26.80;23.60;98942.38;171221;28;1213;-50
2022/01/19 00:01:22;;;;;;;;;;;;;;;26.79;23.62;98932.72;171344;28;4378;-51
2022/01/19 00:01:27;;;;;;;;;;;;;;;26.77;23.24;98938.09;172638;28;968;-51
2022/01/19 00:01:32;;;;;;;;;;;;;;;26.74;23.38;98940.09;171789;28;945;-52
2022/01/19 00:01:38;;;;;;;;;;;;;;;26.74;23.58;98940.94;172420;28;1034;-51
2022/01/19 00:01:43;;;;;;;;;;;;;;;26.74;23.61;98935.66;172562;28;747;-51
2022/01/19 00:01:48;;;;;;;;;;;;;;;26.72;23.62;98942.84;172424;28;1339;-50
2022/01/19 00:01:53;;;;;;;;;;;;;;;26.69;23.66;98935.06;172478;28;1043;-52
2022/01/19 00:01:59;;;;;;;;;;;;;;;26.71;23.58;98936.69;172330;28;1161;-51
2022/01/19 00:02:04;;;;;;;;;;;;;;;26.69;23.37;98941.22;172274;28;948;-51
2022/01/19 00:02:09;;;;;;;;;;;;;;;26.68;23.46;98941.31;172437;28;1007;-52
2022/01/19 00:02:14;;;;;;;;;;;;;;;26.69;23.40;98933.28;172606;28;1031;-51
2022/01/19 00:02:19;;;;;;;;;;;;;;;26.70;23.34;98944.69;172366;28;1158;-50
2022/01/19 00:02:24;;;;;;;;;;;;;;;26.73;23.54;98935.75;172618;28;860;-51
2022/01/19 00:02:30;;;;;;;;;;;;;;;26.71;23.38;98939.34;172599;28;873;-51
2022/01/19 00:02:35;;;;;;;;;;;;;;;26.73;23.33;98943.69;171650;28;1336;-50
2022/01/19 00:02:40;;;;;;;;;;;;;;;26.73;23.44;98933.94;172522;28;1330;-52
2022/01/19 00:02:45;;;;;;;;;;;;;;;26.74;23.43;98938.28;172408;28;1168;-50
2022/01/19 00:02:51;;;;;;;;;;;;;;;26.74;23.46;98940.94;172437;28;845;-52
2022/01/19 00:02:56;;;;;;;;;;;;;;;26.77;23.37;98938.09;172328;28;1167;-50
2022/01/19 00:03:01;;;;;;;;;;;;;;;26.78;23.42;98933.66;171532;28;1188;-51
2022/01/19 00:03:06;;;;;;;;;;;;;;;26.78;23.61;98934.53;171665;28;952;-51
2022/01/19 00:03:11;;;;;;;;;;;;;;;26.79;23.54;98938.88;171802;28;940;-50
2022/01/19 00:03:16;;;;;;;;;;;;;;;26.82;23.29;98940.47;171738;28;1256;-50
2022/01/19 00:03:22;;;;;;;;;;;;;;;26.80;23.46;98937.91;171618;28;1154;-51
2022/01/19 00:03:27;;;;;;;;;;;;;;;26.80;23.29;98945.84;171954;28;928;-50
2022/01/19 00:03:32;;;;;;;;;;;;;;;26.79;23.42;98933.56;171733;28;1150;-52
2022/01/19 00:03:37;;;;;;;;;;;;;;;26.81;23.55;98936.13;171120;28;1027;-50
2022/01/19 00:03:43;;;;;;;;;;;;;;;26.82;23.24;98938.66;171754;28;1130;-50
2022/01/19 00:03:48;;;;;;;;;;;;;;;26.83;23.26;98932.41;171759;28;1178;-50
2022/01/19 00:03:53;;;;;;;;;;;;;;;26.83;23.28;98937.72;172370;28;979;-51
2022/01/19 00:03:58;;;;;;;;;;;;;;;26.82;23.54;98943.97;172388;28;1275;-50
2022/01/19 00:04:03;;;;;;;;;;;;;;;26.82;23.50;98937.81;171337;28;1317;-50
2022/01/19 00:04:09;;;;;;;;;;;;;;;26.80;23.41;98937.91;171636;28;1138;-51
2022/01/19 00:04:14;;;;;;;;;;;;;;;26.80;23.27;98935.28;171805;28;825;-52
2022/01/19 00:04:19;;;;;;;;;;;;;;;26.79;23.43;98933.56;171611;28;1233;-51
2022/01/19 00:04:24;;;;;;;;;;;;;;;26.78;23.37;98928.34;171684;28;952;-51
2022/01/19 00:04:29;;;;;;;;;;;;;;;26.81;23.60;98933.47;171803;28;1213;-50
2022/01/19 00:04:35;;;;;;;;;;;;;;;26.81;23.58;98929.03;172256;28;794;-52
2022/01/19 00:04:40;;;;;;;;;;;;;;;26.82;23.36;98943.97;172783;28;1213;-52
2022/01/19 00:04:45;;;;;;;;;;;;;;;26.83;23.39;98935.06;173231;28;877;-52
2022/01/19 00:04:50;;;;;;;;;;;;;;;26.83;23.14;98932.41;172990;28;805;-52
2022/01/19 00:04:55;;;;;;;;;;;;;;;26.84;23.19;98931.47;173017;28;1049;-50
2022/01/19 00:05:01;;;;;;;;;;;;;;;26.82;23.28;98930.72;172112;28;1140;-51
2022/01/19 00:05:06;;;;;;;;;;;;;;;26.82;23.33;98932.53;172275;28;1034;-52
2022/01/19 00:05:14;;;;;;;;;;;;;;;26.82;23.42;98933.38;172417;28;984;-50
2022/01/19 00:05:19;;;;;;;;;;;;;;;26.84;23.62;98930.63;168141;28;4257;-57
2022/01/19 00:05:24;;;;;;;;;;;;;;;26.81;23.42;98928.19;171672;28;885;-58
2022/01/19 00:05:29;;;;;;;;;;;;;;;26.81;23.37;98929.03;170916;28;1125;-57
2022/01/19 00:05:35;;;;;;;;;;;;;;;26.83;23.35;98932.41;172439;28;967;-56
2022/01/19 00:05:40;;;;;;;;;;;;;;;26.84;23.57;98934.13;172387;28;1023;-56
2022/01/19 00:05:45;;;;;;;;;;;;;;;26.84;23.65;98930.63;172579;28;858;-58
2022/01/19 00:05:50;;;;;;;;;;;;;;;26.82;23.40;98930.72;172396;28;923;-58
2022/01/19 00:05:56;;;;;;;;;;;;;;;26.82;23.48;98928.09;171292;28;1175;-57
2022/01/19 00:06:01;;;;;;;;;;;;;;;26.83;23.17;98921.00;171064;28;821;-57
2022/01/19 00:06:06;;;;;;;;;;;;;;;26.83;23.56;98926.28;172220;28;912;-58
2022/01/19 00:06:11;;;;;;;;;;;;;;;26.81;23.21;98931.69;172342;28;813;-59
2022/01/19 00:06:17;;;;;;;;;;;;;;;26.81;23.34;98925.53;172113;28;1138;-58
2022/01/19 00:06:22;;;;;;;;;;;;;;;26.82;23.54;98925.44;171522;28;1054;-58
2022/01/19 00:06:27;;;;;;;;;;;;;;;26.81;23.36;98926.38;171518;28;1122;-57
2022/01/19 00:06:32;;;;;;;;;;;;;;;26.80;23.30;98923.84;171575;28;1165;-58
2022/01/19 00:06:37;;;;;;;;;;;;;;;26.79;23.48;98924.78;171482;28;1256;-57
2022/01/19 00:06:43;;;;;;;;;;;;;;;26.79;23.24;98922.16;171568;28;904;-58
2022/01/19 00:06:48;;;;;;;;;;;;;;;26.78;23.56;98925.72;170950;28;1126;-57
2022/01/19 00:06:53;;;;;;;;;;;;;;;26.79;23.49;98917.69;171185;28;1233;-57
2022/01/19 00:06:58;;;;;;;;;;;;;;;26.78;23.34;98926.59;171449;28;1324;-57
2022/01/19 00:07:03;;;;;;;;;;;;;;;26.80;23.61;98924.69;171999;28;1098;-57
2022/01/19 00:07:09;;;;;;;;;;;;;;;26.81;23.21;98922.88;172034;28;1101;-57
2022/01/19 00:07:14;;;;;;;;;;;;;;;26.81;23.34;98920.25;172312;28;1153;-57
2022/01/19 00:07:19;;;;;;;;;;;;;;;26.80;23.59;98919.41;172178;28;1244;-57
2022/01/19 00:07:24;;;;;;;;;;;;;;;26.79;23.29;98919.50;172417;28;1129;-58
2022/01/19 00:07:30;;;;;;;;;;;;;;;26.77;23.36;98916.91;172014;28;1433;-58
2022/01/19 00:07:35;;;;;;;;;;;;;;;26.78;23.60;98915.13;172036;28;932;-59
2022/01/19 00:07:40;;;;;;;;;;;;;;;26.74;23.41;98917.13;172485;28;1023;-58
2022/01/19 00:07:45;;;;;;;;;;;;;;;26.74;23.37;98911.81;172753;28;880;-58
2022/01/19 00:07:50;;;;;;;;;;;;;;;26.74;23.36;98906.53;172537;28;1081;-58
2022/01/19 00:07:56;;;;;;;;;;;;;;;26.75;23.41;98910.88;172894;28;1273;-57
2022/01/19 00:08:01;;;;;;;;;;;;;;;26.74;23.68;98909.19;172990;28;1116;-57
2022/01/19 00:08:06;;;;;;;;;;;;;;;26.75;23.35;98913.53;173216;28;900;-58
2022/01/19 00:08:17;;;;;;;;;;;;;;;26.75;23.51;98912.69;172015;28;889;-58
2022/01/19 00:08:22;;;;;;;;;;;;;;;26.78;23.19;98920.41;171934;28;924;-58
2022/01/19 00:08:28;;;;;;;;;;;;;;;26.75;23.44;98910.88;172040;28;1185;-59
2022/01/19 00:08:34;;;;;;;;;;;;;;;26.73;23.38;98910.13;171973;28;790;-57
2022/01/19 00:08:39;;;;;;;;;;;;;;;26.71;23.37;98910.22;171864;28;1146;-58
2022/01/19 00:08:44;;;;;;;;;;;;;;;26.73;23.38;98907.47;172710;28;988;-59
2022/01/19 00:08:50;;;;;;;;;;;;;;;26.75;23.55;98910.03;172534;28;1180;-58
2022/01/19 00:08:55;;;;;;;;;;;;;;;26.75;23.68;98910.03;172646;28;888;-57
2022/01/19 00:09:00;;;;;;;;;;;;;;;26.74;23.60;98903.88;172275;28;1350;-57
2022/01/19 00:09:05;;;;;;;;;;;;;;;26.73;23.38;98911.94;172534;28;952;-58
2022/01/19 00:09:11;;;;;;;;;;;;;;;26.73;23.63;98907.47;172705;28;975;-58
2022/01/19 00:09:16;;;;;;;;;;;;;;;26.71;23.50;98906.75;172549;28;856;-57
2022/01/19 00:09:23;;;;;;;;;;;;;;;26.75;23.68;98907.38;171809;28;4256;-58
2022/01/19 00:09:28;;;;;;;;;;;;;;;26.72;23.38;98903.13;172720;28;888;-58
2022/01/19 00:09:34;;;;;;;;;;;;;;;26.73;23.22;98902.19;171928;28;925;-58
2022/01/19 00:09:39;;;;;;;;;;;;;;;26.74;23.58;98903.88;173196;28;1065;-58
2022/01/19 00:09:44;;;;;;;;;;;;;;;26.75;23.51;98900.28;173366;28;928;-58
2022/01/19 00:09:49;;;;;;;;;;;;;;;26.75;23.55;98905.59;173217;28;1145;-59
2022/01/19 00:09:55;;;;;;;;;;;;;;;26.75;23.35;98910.03;173240;28;785;-58
2022/01/19 00:10:04;;;;;;;;;;;;;;;26.74;23.65;98903.88;172902;28;1331;-58
2022/01/19 00:10:12;;;;;;;;;;;;;;;26.73;23.45;98896.91;173191;28;903;-58
2022/01/19 00:10:20;;;;;;;;;;;;;;;26.74;23.48;98903.88;171485;28;876;-58
2022/01/19 00:10:28;;;;;;;;;;;;;;;26.73;23.44;98901.34;172038;28;900;-59
2022/01/19 00:10:33;;;;;;;;;;;;;;;26.72;23.57;98900.50;171951;28;826;-58
2022/01/19 00:10:38;;;;;;;;;;;;;;;26.74;23.39;98903.88;171532;28;1170;-58
2022/01/19 00:10:43;;;;;;;;;;;;;;;26.73;23.52;98901.34;171604;28;825;-57
2022/01/19 00:10:49;;;;;;;;;;;;;;;26.74;23.51;98900.41;171304;28;1246;-58
2022/01/19 00:10:54;;;;;;;;;;;;;;;26.73;23.30;98901.34;171184;28;886;-58
2022/01/19 00:11:00;;;;;;;;;;;;;;;26.74;23.35;98900.41;171721;28;1252;-57
2022/01/19 00:11:05;;;;;;;;;;;;;;;26.73;23.44;98896.06;172659;28;900;-58
2022/01/19 00:11:10;;;;;;;;;;;;;;;26.71;23.63;98898.81;172477;28;1910;-59
2022/01/19 00:11:16;;;;;;;;;;;;;;;26.70;23.31;98903.25;172725;28;1020;-58
2022/01/19 00:11:22;;;;;;;;;;;;;;;26.72;23.54;98900.50;172445;28;1018;-58
2022/01/19 00:11:27;;;;;;;;;;;;;;;26.74;23.35;98897.75;172798;28;892;-58
2022/01/19 00:11:32;;;;;;;;;;;;;;;26.71;23.69;98904.09;172597;28;1074;-59
2022/01/19 00:11:37;;;;;;;;;;;;;;;26.71;23.68;98896.16;171169;28;1186;-58
2022/01/19 00:11:43;;;;;;;;;;;;;;;26.69;23.58;98898.88;172658;28;585;-58
2022/01/19 00:11:48;;;;;;;;;;;;;;;26.67;23.70;98902.56;172139;28;1248;-59
2022/01/19 00:11:53;;;;;;;;;;;;;;;26.69;23.45;98895.38;171891;28;853;-58
2022/01/19 00:11:58;;;;;;;;;;;;;;;26.68;23.63;98898.97;172152;28;1157;-59
2022/01/19 00:12:03;;;;;;;;;;;;;;;26.69;23.65;98898.88;172473;28;997;-59
2022/01/19 00:12:09;;;;;;;;;;;;;;;26.67;23.62;98895.47;171259;28;826;-58
2022/01/19 00:12:14;;;;;;;;;;;;;;;26.66;23.59;98896.44;171305;28;968;-58
2022/01/19 00:12:19;;;;;;;;;;;;;;;26.66;23.72;98901.72;171208;28;858;-59
2022/01/19 00:12:24;;;;;;;;;;;;;;;26.68;23.69;98898.97;171343;28;969;-58
2022/01/19 00:12:30;;;;;;;;;;;;;;;26.68;23.40;98896.31;171321;28;878;-58
2022/01/19 00:12:35;;;;;;;;;;;;;;;26.71;23.78;98904.09;171187;28;1186;-58
2022/01/19 00:12:43;;;;;;;;;;;;;;;26.69;23.53;98900.66;171161;28;1486;-58
2022/01/19 00:12:48;;;;;;;;;;;;;;;26.71;23.70;98901.44;171252;28;878;-58
2022/01/19 00:12:56;;;;;;;;;;;;;;;26.70;23.69;98897.94;171165;28;786;-57
2022/01/19 00:13:01;;;;;;;;;;;;;;;26.71;23.43;98902.28;171323;28;1031;-57
2022/01/19 00:13:06;;;;;;;;;;;;;;;26.71;23.59;98899.66;171844;28;959;-57
2022/01/19 00:13:11;;;;;;;;;;;;;;;26.72;23.58;98897.84;171895;28;972;-58
2022/01/19 00:13:17;;;;;;;;;;;;;;;26.73;23.67;98898.69;171440;28;4371;-59
2022/01/19 00:13:22;;;;;;;;;;;;;;;26.73;23.35;98901.34;171780;28;1113;-58
2022/01/19 00:13:27;;;;;;;;;;;;;;;26.72;23.55;98895.19;171970;28;790;-58
2022/01/19 00:13:32;;;;;;;;;;;;;;;26.71;23.54;98894.34;171885;28;1146;-58
2022/01/19 00:13:38;;;;;;;;;;;;;;;26.73;23.38;98898.69;171900;28;1201;-57
2022/01/19 00:13:43;;;;;;;;;;;;;;;26.73;23.61;98898.69;171934;28;1185;-58
2022/01/19 00:13:49;;;;;;;;;;;;;;;26.71;23.63;98904.09;171887;28;1178;-59
2022/01/19 00:13:55;;;;;;;;;;;;;;;26.75;23.43;98899.44;171812;28;1129;-57
2022/01/19 00:14:00;;;;;;;;;;;;;;;26.71;23.43;98899.66;171671;28;1213;-59
2022/01/19 00:14:05;;;;;;;;;;;;;;;26.75;23.62;98899.44;171796;28;1004;-58
2022/01/19 00:14:10;;;;;;;;;;;;;;;26.74;23.57;98898.59;170774;28;1398;-58
2022/01/19 00:14:15;;;;;;;;;;;;;;;26.75;23.39;98899.44;171750;28;1046;-58
2022/01/19 00:14:21;;;;;;;;;;;;;;;26.74;23.60;98898.59;171835;28;1118;-58
2022/01/19 00:14:27;;;;;;;;;;;;;;;26.74;23.60;98898.59;172040;28;901;-57
2022/01/19 00:14:32;;;;;;;;;;;;;;;26.73;23.67;98902.19;171874;28;1209;-57
2022/01/19 00:14:38;;;;;;;;;;;;;;;26.71;23.61;98906.75;171787;28;1530;-58
2022/01/19 00:14:43;;;;;;;;;;;;;;;26.73;23.37;98899.53;172569;28;1125;-58
2022/01/19 00:14:48;;;;;;;;;;;;;;;26.70;23.40;98897.94;172711;28;897;-58
2022/01/19 00:14:53;;;;;;;;;;;;;;;26.72;23.75;98903.13;172410;28;1101;-59
2022/01/19 00:14:58;;;;;;;;;;;;;;;26.72;23.32;98903.13;172782;28;1212;-57
2022/01/19 00:15:05;;;;;;;;;;;;;;;26.71;23.61;98894.34;172952;28;1156;-59
2022/01/19 00:15:10;;;;;;;;;;;;;;;26.73;23.31;98898.69;173051;28;1039;-59
2022/01/19 00:15:16;;;;;;;;;;;;;;;26.74;23.50;98900.41;172849;28;932;-59
2022/01/19 00:15:21;;;;;;;;;;;;;;;26.74;23.57;98898.59;172508;28;1141;-59
2022/01/19 00:15:27;;;;;;;;;;;;;;;26.72;23.42;98900.50;172717;28;758;-59
2022/01/19 00:15:32;;;;;;;;;;;;;;;26.69;23.69;98898.88;172637;28;1272;-57
2022/01/19 00:15:37;;;;;;;;;;;;;;;26.73;23.52;98901.34;172409;28;1121;-57
2022/01/19 00:15:42;;;;;;;;;;;;;;;26.71;23.59;98898.81;172609;28;1237;-59
2022/01/19 00:15:47;;;;;;;;;;;;;;;26.70;23.34;98899.72;172720;28;773;-59
2022/01/19 00:15:52;;;;;;;;;;;;;;;26.69;23.49;98900.66;172380;28;1003;-57
2022/01/19 00:15:58;;;;;;;;;;;;;;;26.69;23.69;98904.16;172354;28;1023;-57
2022/01/19 00:16:03;;;;;;;;;;;;;;;26.68;23.74;98899.81;172289;28;1200;-58
2022/01/19 00:16:08;;;;;;;;;;;;;;;26.69;23.40;98904.16;172555;28;885;-58
2022/01/19 00:16:13;;;;;;;;;;;;;;;26.70;23.81;98902.38;172700;28;1020;-58
2022/01/19 00:16:20;;;;;;;;;;;;;;;26.71;23.54;98906.75;172487;28;1149;-58
2022/01/19 00:16:26;;;;;;;;;;;;;;;26.73;23.52;98896.06;172628;28;868;-58
2022/01/19 00:16:32;;;;;;;;;;;;;;;26.73;23.67;98898.69;172665;28;892;-58
2022/01/19 00:16:37;;;;;;;;;;;;;;;26.71;23.50;98904.09;172525;28;1169;-58
2022/01/19 00:16:42;;;;;;;;;;;;;;;26.70;23.50;98903.25;172198;28;1241;-58
2022/01/19 00:16:47;;;;;;;;;;;;;;;26.69;23.47;98904.16;170543;28;838;-59
2022/01/19 00:16:52;;;;;;;;;;;;;;;26.70;23.69;98897.06;170055;29;1425;-59
2022/01/19 00:16:58;;;;;;;;;;;;;;;26.70;23.64;98902.38;170513;29;1265;-57
2022/01/19 00:17:03;;;;;;;;;;;;;;;26.71;23.69;98898.81;170422;29;1166;-58
2022/01/19 00:17:08;;;;;;;;;;;;;;;26.67;23.66;98903.41;170775;28;929;-58
2022/01/19 00:17:13;;;;;;;;;;;;;;;26.68;23.50;98907.75;171287;28;877;-57
2022/01/19 00:17:18;;;;;;;;;;;;;;;26.66;23.72;98904.38;170651;28;4382;-58
2022/01/19 00:17:24;;;;;;;;;;;;;;;26.66;23.73;98892.94;171173;28;1171;-58
2022/01/19 00:17:29;;;;;;;;;;;;;;;26.66;23.76;98896.44;171346;28;1359;-58
2022/01/19 00:17:34;;;;;;;;;;;;;;;26.69;23.44;98903.31;171146;28;810;-57
2022/01/19 00:17:39;;;;;;;;;;;;;;;26.70;23.69;98910.31;171246;28;1194;-58
2022/01/19 00:17:44;;;;;;;;;;;;;;;26.67;23.47;98902.56;171325;28;878;-59
2022/01/19 00:17:54;;;;;;;;;;;;;;;26.67;23.72;98906.06;172086;28;979;-59
2022/01/19 00:17:59;;;;;;;;;;;;;;;26.70;23.65;98902.38;170988;28;1297;-57
2022/01/19 00:18:05;;;;;;;;;;;;;;;26.69;23.62;98903.31;171733;28;1048;-58
2022/01/19 00:18:10;;;;;;;;;;;;;;;26.67;23.57;98903.41;171393;28;925;-59
2022/01/19 00:18:16;;;;;;;;;;;;;;;26.67;23.53;98892.81;171683;28;1242;-58
2022/01/19 00:18:22;;;;;;;;;;;;;;;26.67;23.57;98899.91;170643;28;822;-58
2022/01/19 00:18:27;;;;;;;;;;;;;;;26.67;23.37;98907.84;171704;28;1103;-58
2022/01/19 00:18:32;;;;;;;;;;;;;;;26.68;23.43;98905.09;171941;28;929;-57
2022/01/19 00:18:37;;;;;;;;;;;;;;;26.66;23.44;98899.06;171853;28;1177;-58
2022/01/19 00:18:43;;;;;;;;;;;;;;;26.67;23.39;98902.56;172008;28;916;-58
2022/01/19 00:18:48;;;;;;;;;;;;;;;26.66;23.69;98904.38;171963;28;1153;-59
2022/01/19 00:18:53;;;;;;;;;;;;;;;26.66;23.77;98911.44;172611;28;864;-58
2022/01/19 00:18:58;;;;;;;;;;;;;;;26.63;23.47;98899.28;172189;28;1216;-59
2022/01/19 00:19:03;;;;;;;;;;;;;;;26.67;23.53;98902.56;171509;28;1396;-58
2022/01/19 00:19:08;;;;;;;;;;;;;;;26.61;23.46;98901.13;171205;28;794;-58
2022/01/19 00:19:14;;;;;;;;;;;;;;;26.63;23.66;98907.22;171564;28;1003;-57
2022/01/19 00:19:19;;;;;;;;;;;;;;;26.65;23.59;98900.03;171328;28;932;-59
2022/01/19 00:19:24;;;;;;;;;;;;;;;26.64;23.57;98908.06;171424;28;1082;-58
2022/01/19 00:19:29;;;;;;;;;;;;;;;26.64;23.59;98903.63;172093;28;884;-59
2022/01/19 00:19:34;;;;;;;;;;;;;;;26.66;23.63;98906.16;171161;28;1039;-59
2022/01/19 00:19:40;;;;;;;;;;;;;;;26.66;23.77;98900.88;170424;29;1237;-58
2022/01/19 00:19:45;;;;;;;;;;;;;;;26.66;23.51;98903.50;170043;29;914;-58
2022/01/19 00:19:50;;;;;;;;;;;;;;;26.66;23.72;98903.50;170859;28;1158;-59
2022/01/19 00:19:55;;;;;;;;;;;;;;;26.65;23.52;98904.47;171182;28;826;-58
2022/01/19 00:20:00;;;;;;;;;;;;;;;26.63;23.78;98898.44;170892;28;1414;-57
2022/01/19 00:20:06;;;;;;;;;;;;;;;26.63;23.74;98907.22;171264;28;1052;-58
2022/01/19 00:20:11;;;;;;;;;;;;;;;26.65;23.61;98901.81;171776;28;1357;-59
2022/01/19 00:20:17;;;;;;;;;;;;;;;26.65;23.72;98901.81;171808;28;1113;-57
2022/01/19 00:20:22;;;;;;;;;;;;;;;26.66;23.49;98907.00;171933;28;1157;-58
2022/01/19 00:20:27;;;;;;;;;;;;;;;26.64;23.76;98900.97;172750;28;810;-57
2022/01/19 00:20:33;;;;;;;;;;;;;;;26.65;23.73;98901.81;173247;28;806;-58
2022/01/19 00:20:38;;;;;;;;;;;;;;;26.67;23.77;98905.22;173121;28;1069;-57
2022/01/19 00:20:44;;;;;;;;;;;;;;;26.66;23.49;98904.38;173374;28;912;-58
2022/01/19 00:20:49;;;;;;;;;;;;;;;26.69;23.65;98903.31;172505;28;1130;-58
2022/01/19 00:20:54;;;;;;;;;;;;;;;26.69;23.69;98911.25;172470;28;853;-58
2022/01/19 00:20:59;;;;;;;;;;;;;;;26.70;23.49;98902.38;171537;28;1351;-57
2022/01/19 00:21:05;;;;;;;;;;;;;;;26.69;23.39;98904.16;171866;28;778;-57
2022/01/19 00:21:10;;;;;;;;;;;;;;;26.70;23.69;98903.25;171904;28;964;-58
2022/01/19 00:21:15;;;;;;;;;;;;;;;26.69;23.64;98909.44;171900;28;866;-58
2022/01/19 00:21:20;;;;;;;;;;;;;;;26.71;23.72;98898.81;171347;28;4301;-59
2022/01/19 00:21:25;;;;;;;;;;;;;;;26.68;23.69;98906.91;171901;28;993;-58
2022/01/19 00:21:32;;;;;;;;;;;;;;;26.68;23.45;98904.25;172638;28;813;-58
2022/01/19 00:21:38;;;;;;;;;;;;;;;26.68;23.63;98905.09;172235;28;1025;-59
2022/01/19 00:21:43;;;;;;;;;;;;;;;26.70;23.43;98900.59;172593;28;610;-59
2022/01/19 00:21:48;;;;;;;;;;;;;;;26.71;23.71;98902.28;172510;28;1137;-57
2022/01/19 00:21:53;;;;;;;;;;;;;;;26.72;23.32;98905.78;172506;28;818;-58
2022/01/19 00:21:58;;;;;;;;;;;;;;;26.71;23.32;98907.59;171061;28;1233;-57
2022/01/19 00:22:03;;;;;;;;;;;;;;;26.70;23.67;98903.25;171106;28;1225;-58
2022/01/19 00:22:09;;;;;;;;;;;;;;;26.70;23.69;98900.59;171236;28;1185;-59
2022/01/19 00:22:14;;;;;;;;;;;;;;;26.69;23.54;98905.97;171337;28;825;-58
2022/01/19 00:22:19;;;;;;;;;;;;;;;26.66;23.67;98901.72;171175;28;1102;-59
2022/01/19 00:22:24;;;;;;;;;;;;;;;26.67;23.43;98906.06;171396;28;877;-58
2022/01/19 00:22:30;;;;;;;;;;;;;;;26.68;23.43;98899.81;171418;28;952;-58
2022/01/19 00:22:35;;;;;;;;;;;;;;;26.69;23.76;98905.97;171816;28;1369;-59
2022/01/19 00:22:40;;;;;;;;;;;;;;;26.67;23.44;98899.91;171884;28;1320;-58
2022/01/19 00:22:45;;;;;;;;;;;;;;;26.68;23.62;98898.97;171970;28;1066;-57
2022/01/19 00:22:50;;;;;;;;;;;;;;;26.68;23.64;98901.63;172663;28;1039;-58
2022/01/19 00:22:56;;;;;;;;;;;;;;;26.68;23.63;98901.63;172507;28;991;-56
2022/01/19 00:23:02;;;;;;;;;;;;;;;26.70;23.37;98903.25;172297;28;1092;-57
2022/01/19 00:23:09;;;;;;;;;;;;;;;26.69;23.46;98900.66;172536;28;990;-58
2022/01/19 00:23:18;;;;;;;;;;;;;;;26.68;23.49;98904.25;172724;28;903;-58
2022/01/19 00:23:24;;;;;;;;;;;;;;;26.70;23.40;98900.59;172576;28;975;-57
2022/01/19 00:23:29;;;;;;;;;;;;;;;26.73;23.72;98898.69;172727;28;937;-57
2022/01/19 00:23:34;;;;;;;;;;;;;;;26.71;23.68;98902.28;172597;28;987;-58
2022/01/19 00:23:39;;;;;;;;;;;;;;;26.72;23.67;98905.78;172620;28;1216;-59
2022/01/19 00:23:44;;;;;;;;;;;;;;;26.71;23.48;98904.09;172596;28;1200;-58
2022/01/19 00:23:50;;;;;;;;;;;;;;;26.69;23.37;98903.31;173228;28;865;-58
2022/01/19 00:23:55;;;;;;;;;;;;;;;26.70;23.67;98900.59;171830;28;1114;-59
2022/01/19 00:24:00;;;;;;;;;;;;;;;26.70;23.40;98903.25;171693;28;1284;-57
2022/01/19 00:24:06;;;;;;;;;;;;;;;26.67;23.77;98892.81;171852;28;904;-58
2022/01/19 00:24:11;;;;;;;;;;;;;;;26.69;23.49;98896.22;171959;28;887;-59
2022/01/19 00:24:16;;;;;;;;;;;;;;;26.68;23.39;98898.97;171818;28;1118;-58
2022/01/19 00:24:21;;;;;;;;;;;;;;;26.69;23.64;98898.88;171893;28;1020;-59
2022/01/19 00:24:26;;;;;;;;;;;;;;;26.71;23.65;98901.44;172089;28;873;-59
2022/01/19 00:24:32;;;;;;;;;;;;;;;26.69;23.75;98900.66;172669;28;1070;-59
2022/01/19 00:24:37;;;;;;;;;;;;;;;26.70;23.60;98902.38;172476;28;1216;-58
2022/01/19 00:24:43;;;;;;;;;;;;;;;26.71;23.59;98898.81;172657;28;1146;-58
2022/01/19 00:24:48;;;;;;;;;;;;;;;26.69;23.34;98904.16;172640;28;845;-57
2022/01/19 00:24:54;;;;;;;;;;;;;;;26.69;23.44;98895.38;171746;28;1564;-58
2022/01/19 00:24:59;;;;;;;;;;;;;;;26.70;23.31;98907.66;171734;28;971;-59
2022/01/19 00:25:07;;;;;;;;;;;;;;;26.70;23.39;98902.38;171904;28;1185;-59
2022/01/19 00:25:13;;;;;;;;;;;;;;;26.69;23.57;98905.97;171964;28;1020;-57
2022/01/19 00:25:18;;;;;;;;;;;;;;;26.68;23.63;98901.63;171956;28;4421;-58
2022/01/19 00:25:23;;;;;;;;;;;;;;;26.66;23.50;98900.88;172401;28;1141;-58
2022/01/19 00:25:28;;;;;;;;;;;;;;;26.62;23.73;98900.22;172627;28;1138;-59
2022/01/19 00:25:34;;;;;;;;;;;;;;;26.64;23.31;98902.75;172605;28;825;-58
2022/01/19 00:25:39;;;;;;;;;;;;;;;26.63;23.59;98901.06;171943;28;1102;-58
2022/01/19 00:25:45;;;;;;;;;;;;;;;26.65;23.42;98889.44;172033;28;935;-58
2022/01/19 00:25:51;;;;;;;;;;;;;;;26.63;23.71;98899.28;171281;28;806;-58
2022/01/19 00:25:56;;;;;;;;;;;;;;;26.64;23.52;98898.31;171744;28;1352;-57
2022/01/19 00:26:01;;;;;;;;;;;;;;;26.64;23.82;98898.31;171701;28;1113;-58
2022/01/19 00:26:06;;;;;;;;;;;;;;;26.62;23.49;98902.00;172075;28;1085;-59
2022/01/19 00:26:12;;;;;;;;;;;;;;;26.62;23.64;98896.69;172043;28;810;-58
2022/01/19 00:26:17;;;;;;;;;;;;;;;26.62;23.71;98900.22;172031;28;1109;-58
2022/01/19 00:26:22;;;;;;;;;;;;;;;26.61;23.55;98902.94;172618;28;869;-58
2022/01/19 00:26:28;;;;;;;;;;;;;;;26.59;23.80;98900.41;172490;28;1101;-57
2022/01/19 00:26:33;;;;;;;;;;;;;;;26.62;23.53;98899.34;171200;28;845;-58
2022/01/19 00:26:38;;;;;;;;;;;;;;;26.63;23.57;98896.63;171332;28;885;-58
2022/01/19 00:26:43;;;;;;;;;;;;;;;26.64;23.79;98897.47;171247;28;933;-58
2022/01/19 00:26:49;;;;;;;;;;;;;;;26.64;23.52;98900.97;170505;29;1095;-57
2022/01/19 00:26:54;;;;;;;;;;;;;;;26.61;23.45;98897.66;171677;28;1122;-58
2022/01/19 00:26:59;;;;;;;;;;;;;;;26.63;23.48;98888.69;171925;28;889;-57
2022/01/19 00:27:04;;;;;;;;;;;;;;;26.62;23.62;98888.75;171571;28;1019;-58
2022/01/19 00:27:10;;;;;;;;;;;;;;;26.62;23.62;98891.41;172948;28;797;-58
2022/01/19 00:27:15;;;;;;;;;;;;;;;26.64;23.57;98894.81;172592;28;1196;-58
2022/01/19 00:27:20;;;;;;;;;;;;;;;26.63;23.61;98886.03;173208;28;889;-59
2022/01/19 00:27:25;;;;;;;;;;;;;;;26.65;23.51;98893.88;172638;28;1116;-58
2022/01/19 00:27:30;;;;;;;;;;;;;;;26.63;23.45;98890.50;172662;28;904;-58
2022/01/19 00:27:35;;;;;;;;;;;;;;;26.64;23.44;98894.81;172820;28;937;-58
2022/01/19 00:27:41;;;;;;;;;;;;;;;26.62;23.71;98900.22;173296;28;1026;-58
2022/01/19 00:27:46;;;;;;;;;;;;;;;26.63;23.45;98896.63;173266;28;857;-58
2022/01/19 00:27:51;;;;;;;;;;;;;;;26.63;23.58;98893.13;173208;28;1038;-59
2022/01/19 00:27:56;;;;;;;;;;;;;;;26.65;23.52;98893.88;172491;28;1000;-57
2022/01/19 00:28:02;;;;;;;;;;;;;;;26.67;23.44;98900.78;172328;28;1155;-58
2022/01/19 00:28:07;;;;;;;;;;;;;;;26.66;23.45;98891.13;172733;28;1170;-59
2022/01/19 00:28:12;;;;;;;;;;;;;;;26.67;23.47;98895.47;172726;28;923;-58
2022/01/19 00:28:17;;;;;;;;;;;;;;;26.69;23.34;98893.56;172151;28;1327;-58
2022/01/19 00:28:22;;;;;;;;;;;;;;;26.70;23.47;98897.06;172670;28;881;-58
2022/01/19 00:28:28;;;;;;;;;;;;;;;26.69;23.63;98892.72;172163;28;1224;-58
2022/01/19 00:28:33;;;;;;;;;;;;;;;26.67;23.37;98891.97;171286;28;861;-59
2022/01/19 00:28:38;;;;;;;;;;;;;;;26.67;23.75;98891.97;171573;28;1217;-58
2022/01/19 00:28:43;;;;;;;;;;;;;;;26.68;23.71;98891.88;171489;28;865;-58
2022/01/19 00:28:48;;;;;;;;;;;;;;;26.69;23.64;98898.88;171201;28;984;-58
2022/01/19 00:28:55;;;;;;;;;;;;;;;26.69;23.70;98890.94;171384;28;1827;-58
2022/01/19 00:29:00;;;;;;;;;;;;;;;26.70;23.63;98894.41;171520;28;915;-57
2022/01/19 00:29:05;;;;;;;;;;;;;;;26.69;23.57;98893.56;172688;28;550;-57